DW8873 Weather Reports


Display with metric or nautical units.
time (UTC)temp
F
wind
direction
speed
MPH
gust
MPH
rain 1hr
in
rain 24hr
in
rain mn
in
humidity
%
barometer
mb
20260905113028 71 351 1.0 6.0 0.00 0.00 0.00 55 1008.0
20260905112026 71 2 1.0 4.0 0.00 0.00 0.00 56 1007.6
20260905111025 71 1 2.0 5.0 0.00 0.00 0.00 56 1007.6
20260905105952 71 331 1.0 8.0 0.00 0.00 0.00 56 1007.6
20260905104951 72 325 1.0 8.0 0.00 0.00 0.00 56 1007.6
20260905103919 72 340 1.0 7.0 0.00 0.00 0.00 56 1007.6
20260905102917 72 332 2.0 8.0 0.00 0.00 0.00 57 1007.6
20260905101916 73 332 3.0 8.0 0.00 0.00 0.00 57 1007.6
20260905100914 73 311 2.0 8.0 0.00 0.00 0.00 56 1007.6
20260905095912 73 306 2.0 8.0 0.00 0.00 0.00 56 1007.3
20260905094911 74 333 2.0 8.0 0.00 0.00 0.00 55 1007.3
20260905093806 74 338 2.0 8.0 0.00 0.00 0.00 54 1007.2
20260905092805 74 355 2.0 7.0 0.00 0.00 0.00 52 1007.6
20260905091733 74 358 2.0 11.0 0.00 0.00 0.00 51 1007.2
20260905090731 74 302 3.0 11.0 0.00 0.00 0.00 50 1007.2
20260905085730 74 269 2.0 11.0 0.00 0.00 0.00 50 1007.2
20260905084728 75 341 2.0 16.0 0.00 0.00 0.00 48 1007.2
20260905083624 75 340 5.0 21.0 0.00 0.00 0.00 48 1006.9
20260905082551 74 353 5.0 22.0 0.00 0.00 0.00 49 1006.5
20260905081519 73 18 4.0 10.0 0.00 0.00 0.00 51 1007.2
20260905080518 72 340 4.0 10.0 0.00 0.00 0.00 51 1007.9
20260905075516 72 286 5.0 10.0 0.00 0.00 0.00 48 1008.2
20260905074515 72 319 1.0 4.0 0.00 0.00 0.00 42 1008.9
20260905073513 72 229 2.0 4.0 0.00 0.00 0.00 42 1009.2
20260905072512 72 262 2.0 10.0 0.00 0.00 0.00 43 1009.2
20260905071511 72 254 3.0 10.0 0.00 0.00 0.00 46 1009.6
20260905070510 72 255 2.0 10.0 0.00 0.00 0.00 46 1008.9
20260905065508 72 263 2.0 12.0 0.00 0.00 0.00 46 1008.6
20260905064435 74 261 5.0 13.0 0.00 0.00 0.00 54 1008.6
20260905063433 77 266 3.0 18.0 0.00 0.00 0.00 53 1008.6
20260905062400 81 243 9.0 21.0 0.00 0.00 0.00 44 1008.3
20260905061359 85 250 8.0 14.0 0.00 0.00 0.00 33 1006.9
20260905060357 85 243 4.0 9.0 0.00 0.00 0.00 31 1006.2
20260905055355 86 250 4.0 14.0 0.00 0.00 0.00 30 1005.9
20260905054353 86 256 5.0 14.0 0.00 0.00 0.00 29 1005.6
20260905053352 88 247 4.0 18.0 0.00 0.00 0.00 28 1005.2
20260905052350 89 246 6.0 18.0 0.00 0.00 0.00 24 1005.2
20260905051348 89 316 3.0 14.0 0.00 0.00 0.00 27 1004.9
20260905050347 89 1 3.0 14.0 0.00 0.00 0.00 28 1004.6
20260905045346 89 297 2.0 12.0 0.00 0.00 0.00 27 1004.6
20260905044345 90 344 4.0 12.0 0.00 0.00 0.00 26 1004.6
20260905043344 90 316 4.0 13.0 0.00 0.00 0.00 27 1004.6
20260905042311 89 313 3.0 13.0 0.00 0.00 0.00 29 1004.6
20260905041238 90 325 4.0 14.0 0.00 0.00 0.00 28 1004.9
20260905040237 89 264 3.0 19.0 0.00 0.00 0.00 29 1004.9
20260905035235 88 348 3.0 20.0 0.00 0.00 0.00 31 1004.9
20260905034234 88 346 5.0 18.0 0.00 0.00 0.00 31 1005.2
20260905033130 87 348 3.0 20.0 0.00 0.00 0.00 32 1005.6
20260905032128 86 342 4.0 20.0 0.00 0.00 0.00 33 1005.9
20260905031126 85 339 7.0 22.0 0.00 0.00 0.00 33 1006.2
20260905030125 85 344 8.0 23.0 0.00 0.00 0.00 32 1006.6
20260905025123 85 350 4.0 23.0 0.00 0.00 0.00 34 1006.9
20260905024122 85 349 6.0 20.0 0.00 0.00 0.00 34 1007.2
20260905023049 84 341 5.0 19.0 0.00 0.00 0.00 35 1007.6
20260905022016 82 358 4.0 20.0 0.00 0.00 0.00 37 1008.3
20260905021015 81 340 6.0 17.0 0.00 0.00 0.00 37 1008.6
20260905020013 80 348 6.0 23.0 0.00 0.00 0.00 38 1008.9
20260905015011 80 335 6.0 23.0 0.00 0.00 0.00 37 1009.3
20260905013939 79 340 6.0 22.0 0.00 0.00 0.00 36 1009.6
20260905012938 79 357 7.0 19.0 0.00 0.00 0.00 38 1009.9
20260905011936 79 354 6.0 19.0 0.00 0.00 0.00 38 1009.9
20260905010935 79 349 5.0 14.0 0.00 0.00 0.00 38 1010.6
20260905005934 81 349 6.0 14.0 0.00 0.00 0.00 35 1010.6
20260905004932 81 2 4.0 12.0 0.00 0.00 0.00 35 1011.0
20260905003931 81 357 3.0 10.0 0.00 0.00 0.00 35 1011.3
20260905002929 80 328 1.0 10.0 0.00 0.00 0.00 37 1011.6
20260905001928 78 351 2.0 8.0 0.00 0.00 0.00 39 1012.0
20260905000926 77 348 3.0 8.0 0.00 0.00 0.00 40 1012.3
20260904235854 78 0 3.0 11.0 0.00 0.00 0.00 39 1012.3
20260904234852 79 356 5.0 11.0 0.00 0.00 0.00 37 1012.7
20260904233851 79 41 2.0 5.0 0.00 0.00 0.00 40 1013.0
20260904232849 78 351 3.0 9.0 0.00 0.00 0.00 40 1013.3
20260904231847 77 347 2.0 9.0 0.00 0.00 0.00 43 1013.3
20260904230846 76 354 2.0 11.0 0.00 0.00 0.00 44 1013.7
20260904225845 74 335 1.0 11.0 0.00 0.00 0.00 46 1013.7
20260904224844 75 350 4.0 9.0 0.00 0.00 0.00 46 1013.7
20260904223810 73 334 1.0 12.0 0.00 0.00 0.00 48 1014.0
20260904222738 74 1 2.0 4.0 0.00 0.00 0.00 47 1014.3
20260904221603 73 21 2.0 3.0 0.00 0.00 0.00 50 1014.7
20260904220602 72 343 1.0 4.0 0.00 0.00 0.00 54 1014.7
20260904215600 69 342 1.0 3.0 0.00 0.00 0.00 56 1014.7
20260904214559 68 343 1.0 5.0 0.00 0.00 0.00 57 1014.6
20260904213557 66 344 1.0 8.0 0.00 0.00 0.00 57 1015.0
20260904212525 65 339 3.0 8.0 0.00 0.00 0.00 57 1015.0
20260904211524 64 343 3.0 8.0 0.00 0.00 0.00 57 1015.0
20260904210522 63 343 3.0 5.0 0.00 0.00 0.00 54 1014.6
20260904205521 62 339 1.0 4.0 0.00 0.00 0.00 51 1015.0
20260904204519 61 338 2.0 5.0 0.00 0.00 0.00 51 1015.0
20260904203518 61 334 2.0 3.0 0.00 0.00 0.00 51 1015.0
20260904202517 61 334 2.0 2.0 0.00 0.00 0.00 49 1015.0
20260904201515 62 334 1.0 5.0 0.00 0.00 0.00 53 1015.3
20260904200442 62 334 1.0 5.0 0.00 0.00 0.00 53 1015.0
20260904195440 61 342 1.0 3.0 0.00 0.00 0.00 49 1015.0
20260904194438 62 335 0.0 6.0 0.00 0.00 0.00 51 1015.0
20260904193437 62 335 1.0 6.0 0.00 0.00 0.00 53 1015.0
20260904192435 62 341 1.0 6.0 0.00 0.00 0.00 53 1014.6
20260904191433 63 337 2.0 7.0 0.00 0.00 0.00 53 1014.6
20260904190432 63 343 2.0 7.0 0.00 0.00 0.00 52 1014.6
20260904185431 63 339 3.0 7.0 0.00 0.00 0.00 49 1014.6
20260904184430 62 348 2.0 8.0 0.00 0.00 0.00 47 1015.0
20260904183428 62 337 3.0 8.0 0.00 0.00 0.00 44 1015.0
20260904182427 61 348 3.0 6.0 0.00 0.00 0.00 36 1015.3
20260904181426 61 346 2.0 6.0 0.00 0.00 0.00 28 1015.3
20260904180424 61 341 2.0 6.0 0.00 0.00 0.00 28 1015.0
20260904175422 61 346 2.0 5.0 0.00 0.00 0.00 26 1015.0
20260904174421 60 349 2.0 5.0 0.00 0.00 0.00 23 1015.0
20260904173419 60 349 1.0 7.0 0.00 0.00 0.00 16 1015.0
20260904172347 58 342 3.0 7.0 0.00 0.00 0.00 1 1015.0
20260904171315 57 339 2.0 4.0 0.00 0.00 0.00 1 1015.0
20260904170313 58 339 0.0 3.0 0.00 0.00 0.00 1 1015.3
20260904165312 58 339 1.0 5.0 0.00 0.00 0.00 1 1015.3
20260904164310 57 339 3.0 5.0 0.00 0.00 0.00 1 1015.6
20260904163309 57 337 0.0 3.0 0.00 0.00 0.00 1 1015.6
20260904162236 56 334 1.0 3.0 0.00 0.00 0.00 1 1015.6
20260904161235 56 334 0.0 0.0 0.00 0.00 0.00 1 1016.0
20260904160233 56 333 0.0 0.0 0.00 0.00 0.00 1 1016.3
20260904155200 56 333 0.0 0.0 0.00 0.00 0.00 1 1016.3
20260904154159 56 334 0.0 1.0 0.00 0.00 0.00 1 1016.3
20260904153157 56 334 0.0 1.0 0.00 0.00 0.00 1 1016.7
20260904152155 57 334 1.0 2.0 0.00 0.00 0.00 1 1016.7
20260904151153 57 333 0.0 2.0 0.00 0.00 0.00 1 1017.0
20260904150151 57 334 1.0 2.0 0.00 0.00 0.00 1 1017.0
20260904145150 57 324 0.0 2.0 0.00 0.00 0.00 1 1017.3
20260904144148 57 323 1.0 2.0 0.00 0.00 0.00 1 1017.3
20260904143147 57 324 0.0 2.0 0.00 0.00 0.00 1 1017.3
20260904142128 57 322 0.0 2.0 0.00 0.00 0.00 1 1017.3
20260904141126 57 322 2.0 2.0 0.00 0.00 0.00 1 1017.0
20260904140125 57 293 1.0 2.0 0.00 0.00 0.00 1 1017.3
20260904135123 58 293 1.0 1.0 0.00 0.00 0.00 1 1017.3
20260904134122 59 293 1.0 1.0 0.00 0.00 0.00 1 1017.3
20260904133049 59 293 0.0 1.0 0.00 0.00 0.00 1 1017.7
20260904132048 59 293 0.0 1.0 0.00 0.00 0.00 1 1017.7
20260904131047 59 293 0.0 1.0 0.00 0.00 0.00 1 1017.7
20260904130045 59 293 0.0 2.0 0.00 0.00 0.00 1 1017.7
20260904125012 59 280 0.0 2.0 0.00 0.00 0.00 1 1017.7
20260904124011 60 175 1.0 1.0 0.00 0.00 0.00 1 1018.0
20260904123009 60 175 0.0 0.0 0.00 0.00 0.00 1 1018.3
20260904122008 60 175 0.0 1.0 0.00 0.00 0.00 1 1018.3
20260904120904 61 175 0.0 1.0 0.00 0.00 0.00 1 1018.3
20260904115903 61 175 0.0 1.0 0.00 0.00 0.00 3 1018.3
20260904114901 62 175 0.0 1.0 0.00 0.00 0.00 8 1018.3
20260904113859 63 175 0.0 0.0 0.00 0.00 0.00 21 1018.4